createdAt,value
2022-09-16T00:01:18.599Z,99768.88
2022-09-16T00:03:44.819Z,99773.31
2022-09-16T00:06:21.661Z,99786.13
2022-09-16T00:08:48.215Z,99782.22
2022-09-16T00:11:14.457Z,99775.16
2022-09-16T00:13:40.654Z,99769.72
2022-09-16T00:16:10.505Z,99779.63
2022-09-16T00:18:36.748Z,99783.84
2022-09-16T00:21:06.301Z,99790.13
2022-09-16T00:23:33.110Z,99794.28
2022-09-16T00:25:59.297Z,99791.19
2022-09-16T00:28:25.493Z,99791.19
2022-09-16T00:30:51.679Z,99782.53
2022-09-16T00:33:18.081Z,99771.03
2022-09-16T00:35:44.273Z,99766.59
2022-09-16T00:38:10.473Z,99770.25
2022-09-16T00:40:43.090Z,99762.19
2022-09-16T00:43:09.508Z,99766.59
2022-09-16T00:45:35.685Z,99762.94
2022-09-16T00:48:03.145Z,99759.59
2022-09-16T00:50:41.057Z,99762.44
2022-09-16T00:53:07.489Z,99756.38
2022-09-16T00:55:34.014Z,99740.97
2022-09-16T00:58:02.808Z,99750.34
2022-09-16T01:00:29.023Z,99736.00
2022-09-16T01:02:55.241Z,99734.69
2022-09-16T01:05:22.130Z,99741.22
2022-09-16T01:07:48.925Z,99730.00
2022-09-16T01:10:17.010Z,99730.25
2022-09-16T01:12:44.006Z,99728.16
2022-09-16T01:15:10.273Z,99718.22
2022-09-16T01:17:55.269Z,99716.66
2022-09-16T01:20:21.412Z,99713.03
2022-09-16T01:22:56.830Z,99716.41
2022-09-16T01:25:22.964Z,99710.47
2022-09-16T01:27:57.241Z,99715.13
2022-09-16T01:30:40.115Z,99709.16
2022-09-16T01:33:06.783Z,99716.75
2022-09-16T01:35:51.853Z,99733.72
2022-09-16T01:38:18.001Z,99734.00
2022-09-16T01:41:02.805Z,99737.91
2022-09-16T01:43:28.964Z,99744.19
2022-09-16T01:45:56.310Z,99739.72
2022-09-16T01:48:29.753Z,99745.47
2022-09-16T01:51:00.661Z,99746.50
2022-09-16T01:53:28.941Z,99742.03
2022-09-16T01:55:59.388Z,99750.91
2022-09-16T01:58:40.825Z,99751.44
2022-09-16T02:01:09.501Z,99744.84
2022-09-16T02:03:36.509Z,99735.72
2022-09-16T02:06:06.667Z,99727.06
2022-09-16T02:08:42.931Z,99709.03
2022-09-16T02:11:09.282Z,99712.22
2022-09-16T02:13:36.917Z,99707.56
2022-09-16T02:16:10.543Z,99705.94
2022-09-16T02:18:37.511Z,99706.19
2022-09-16T02:21:04.392Z,99692.56
2022-09-16T02:23:31.558Z,99691.56
2022-09-16T02:25:57.749Z,99676.44
2022-09-16T02:28:29.314Z,99681.97
2022-09-16T02:30:56.062Z,99696.53
2022-09-16T02:33:22.856Z,99676.19
2022-09-16T02:35:49.912Z,99677.81
2022-09-16T02:38:26.196Z,99670.00
2022-09-16T02:40:59.345Z,99674.22
2022-09-16T02:43:25.622Z,99693.28
2022-09-16T02:45:53.828Z,99695.13
2022-09-16T02:48:40.277Z,99701.13
2022-09-16T02:51:09.500Z,99702.94
2022-09-16T02:53:38.436Z,99711.31
2022-09-16T02:56:15.134Z,99696.97
2022-09-16T02:58:41.332Z,99713.94
2022-09-16T03:01:07.531Z,99715.19
2022-09-16T03:03:33.728Z,99709.75
2022-09-16T03:05:59.878Z,99698.00
2022-09-16T03:08:26.087Z,99694.09
2022-09-16T03:10:52.273Z,99696.69
2022-09-16T03:13:21.882Z,99681.84
2022-09-16T03:15:51.200Z,99697.22
2022-09-16T03:18:21.716Z,99695.16
2022-09-16T03:21:00.993Z,99697.75
2022-09-16T03:23:43.893Z,99699.88
2022-09-16T03:26:30.335Z,99699.09
2022-09-16T03:29:02.776Z,99705.09
2022-09-16T03:31:39.476Z,99697.53
2022-09-16T03:34:06.578Z,99697.53
2022-09-16T03:36:34.274Z,99700.66
2022-09-16T03:39:00.622Z,99697.31
2022-09-16T03:41:27.818Z,99693.13
2022-09-16T03:43:54.453Z,99704.59
2022-09-16T03:46:20.673Z,99701.50
2022-09-16T03:48:46.903Z,99699.38
2022-09-16T03:51:13.101Z,99691.81
2022-09-16T03:53:39.310Z,99703.59
2022-09-16T03:56:05.636Z,99708.78
2022-09-16T03:58:31.836Z,99706.69
2022-09-16T04:00:58.035Z,99694.91
2022-09-16T04:03:24.256Z,99686.88
2022-09-16T04:05:53.769Z,99698.31
2022-09-16T04:08:19.978Z,99687.38
2022-09-16T04:10:55.756Z,99687.91
2022-09-16T04:13:21.977Z,99686.88
2022-09-16T04:15:48.235Z,99682.16
2022-09-16T04:18:14.469Z,99680.34
2022-09-16T04:20:40.683Z,99678.25
2022-09-16T04:23:06.888Z,99681.13
2022-09-16T04:25:33.078Z,99673.81
2022-09-16T04:27:59.300Z,99673.81
2022-09-16T04:30:25.527Z,99666.78
2022-09-16T04:32:55.045Z,99664.69
2022-09-16T04:35:21.306Z,99666.53
2022-09-16T04:37:47.491Z,99667.03
2022-09-16T04:40:13.713Z,99671.47
2022-09-16T04:42:39.938Z,99668.09
2022-09-16T04:45:06.426Z,99661.81
2022-09-16T04:47:32.645Z,99660.25
2022-09-16T04:49:58.862Z,99664.94
2022-09-16T04:52:25.056Z,99661.81
2022-09-16T04:54:51.264Z,99656.31
2022-09-16T04:57:17.458Z,99658.94
2022-09-16T04:59:43.669Z,99661.03
2022-09-16T05:02:09.865Z,99662.09
2022-09-16T05:04:36.074Z,99656.09
2022-09-16T05:07:02.283Z,99664.69
2022-09-16T05:09:28.502Z,99653.22
2022-09-16T05:11:54.692Z,99659.47
2022-09-16T05:14:20.894Z,99654.00
2022-09-16T05:16:47.099Z,99643.00
2022-09-16T05:19:13.386Z,99640.88
2022-09-16T05:21:39.650Z,99629.94
2022-09-16T05:24:06.669Z,99622.59
2022-09-16T05:26:32.966Z,99617.03
2022-09-16T05:29:02.765Z,99615.47
2022-09-16T05:31:29.753Z,99612.59
2022-09-16T05:33:59.629Z,99613.91
2022-09-16T05:36:26.151Z,99608.91
2022-09-16T05:39:18.307Z,99618.00
2022-09-16T05:41:38.526Z,99597.69
2022-09-16T05:44:04.731Z,99589.63
2022-09-16T05:46:31.005Z,99606.06
2022-09-16T05:48:57.226Z,99606.84
2022-09-16T05:51:23.532Z,99603.41
2022-09-16T05:53:49.916Z,99595.06
2022-09-16T05:56:19.686Z,99603.38
2022-09-16T05:58:45.994Z,99600.50
2022-09-16T06:01:13.096Z,99602.81
2022-09-16T06:03:39.614Z,99586.03
2022-09-16T06:06:06.694Z,99594.13
2022-09-16T06:08:33.485Z,99585.19
2022-09-16T06:11:06.769Z,99578.34
2022-09-16T06:13:33.122Z,99572.81
2022-09-16T06:15:59.568Z,99556.03
2022-09-16T06:18:26.281Z,99549.44
2022-09-16T06:20:52.588Z,99546.28
2022-09-16T06:23:18.785Z,99549.34
2022-09-16T06:25:45.104Z,99536.22
2022-09-16T06:28:11.314Z,99535.91
2022-09-16T06:30:37.975Z,99524.63
2022-09-16T06:33:04.250Z,99533.69
2022-09-16T06:35:30.445Z,99522.13
2022-09-16T06:37:56.704Z,99522.34
2022-09-16T06:40:22.954Z,99520.72
2022-09-16T06:42:49.190Z,99505.66
2022-09-16T06:45:15.395Z,99454.34
2022-09-16T06:47:41.598Z,99381.88
2022-09-16T06:50:07.954Z,99286.94
2022-09-16T06:52:34.144Z,99224.44
2022-09-16T06:55:00.338Z,99141.59
2022-09-16T06:57:26.537Z,99204.63
2022-09-16T06:59:52.743Z,99285.56
2022-09-16T07:02:19.205Z,99270.53
2022-09-16T07:04:45.555Z,99330.91
2022-09-16T07:07:12.178Z,99334.63
2022-09-16T07:09:38.664Z,99298.06
2022-09-16T07:12:04.995Z,99262.94
2022-09-16T07:14:31.206Z,99257.94
2022-09-16T07:16:57.476Z,99224.28
2022-09-16T07:19:24.068Z,99194.78
2022-09-16T07:21:50.253Z,99187.50
2022-09-16T07:24:16.477Z,99208.06
2022-09-16T07:26:42.774Z,99182.22
2022-09-16T07:29:10.493Z,99192.69
2022-09-16T07:31:37.055Z,99212.41
2022-09-16T07:34:04.728Z,99224.16
2022-09-16T07:36:32.120Z,99183.94
2022-09-16T07:38:58.346Z,99195.09
2022-09-16T07:41:26.273Z,99148.63
2022-09-16T07:43:55.816Z,99137.50
2022-09-16T07:46:22.145Z,99125.72
2022-09-16T07:48:48.656Z,99091.84
2022-09-16T07:51:15.729Z,99064.56
2022-09-16T07:53:42.013Z,99124.41
2022-09-16T07:56:14.210Z,99210.25
2022-09-16T07:58:40.581Z,99229.41
2022-09-16T08:01:06.886Z,99183.19
2022-09-16T08:03:36.144Z,99137.69
2022-09-16T08:06:09.193Z,99239.94
2022-09-16T08:08:35.385Z,99259.56
2022-09-16T08:11:02.030Z,99184.56
2022-09-16T08:13:28.933Z,99213.19
2022-09-16T08:15:55.289Z,99208.06
2022-09-16T08:18:21.593Z,99205.13
2022-09-16T08:20:47.797Z,99183.63
2022-09-16T08:23:13.988Z,99232.19
2022-09-16T08:25:40.357Z,99228.69
2022-09-16T08:28:06.571Z,99139.81
2022-09-16T08:30:32.944Z,99193.50
2022-09-16T08:32:59.133Z,99161.00
2022-09-16T08:35:25.455Z,99171.69
2022-09-16T08:37:51.870Z,99232.59
2022-09-16T08:40:18.802Z,99256.72
2022-09-16T08:42:50.082Z,99026.56
2022-09-16T08:45:18.279Z,99118.78
2022-09-16T08:47:53.676Z,99200.09
2022-09-16T08:50:24.895Z,99186.66
2022-09-16T08:52:51.084Z,99218.88
2022-09-16T08:55:31.674Z,99220.13
2022-09-16T08:57:59.221Z,99230.19
2022-09-16T09:00:25.416Z,99346.38
2022-09-16T09:02:57.755Z,99401.50
2022-09-16T09:05:23.914Z,99373.25
2022-09-16T09:07:50.085Z,99371.06
2022-09-16T09:10:22.757Z,99436.53
2022-09-16T09:12:49.923Z,99439.13
2022-09-16T09:15:28.637Z,99427.84
2022-09-16T09:18:16.185Z,99529.47
2022-09-16T09:21:01.361Z,99282.66
2022-09-16T09:23:31.123Z,99242.84
2022-09-16T09:26:16.170Z,99135.66
2022-09-16T09:28:46.732Z,99202.97
2022-09-16T09:31:23.419Z,99174.59
2022-09-16T09:34:01.988Z,99146.66
2022-09-16T09:36:30.933Z,99099.81
2022-09-16T09:39:07.614Z,99118.53
2022-09-16T09:41:34.477Z,99158.41
2022-09-16T09:44:06.768Z,99229.31
2022-09-16T09:46:40.353Z,99287.41
2022-09-16T09:49:21.879Z,99327.09
2022-09-16T09:51:49.374Z,99339.16
2022-09-16T09:54:21.856Z,99371.53
2022-09-16T09:56:48.095Z,99326.47
2022-09-16T09:59:33.251Z,99258.25
2022-09-16T10:01:59.535Z,99275.50
2022-09-16T10:04:25.760Z,99347.13
2022-09-16T10:06:52.960Z,99406.59
2022-09-16T10:09:19.243Z,99437.81
2022-09-16T10:11:54.897Z,99308.19
2022-09-16T10:14:34.096Z,99218.75
2022-09-16T10:17:00.863Z,99185.81
2022-09-16T10:19:27.154Z,99142.16
2022-09-16T10:21:54.113Z,99154.72
2022-09-16T10:24:31.021Z,99029.59
2022-09-16T10:26:57.569Z,98786.72
2022-09-16T10:29:23.763Z,98739.41
2022-09-16T10:31:50.018Z,98832.88
2022-09-16T10:34:42.463Z,98915.16
2022-09-16T10:37:08.607Z,99038.91
2022-09-16T10:39:34.822Z,99027.91
2022-09-16T10:42:01.777Z,99062.66
2022-09-16T10:44:28.576Z,99096.19
2022-09-16T10:46:54.733Z,99096.78
2022-09-16T10:49:22.948Z,99086.09
2022-09-16T10:51:49.153Z,99151.53
2022-09-16T10:54:25.459Z,99126.03
2022-09-16T10:56:51.702Z,99163.00
2022-09-16T10:59:17.885Z,99125.28
2022-09-16T11:02:03.053Z,99082.78
2022-09-16T11:04:29.471Z,99021.91
2022-09-16T11:07:14.578Z,99099.97
2022-09-16T11:09:43.507Z,99295.53
2022-09-16T11:12:29.068Z,99398.56
2022-09-16T11:14:58.285Z,99366.19
2022-09-16T11:17:31.068Z,99393.41
2022-09-16T11:20:06.408Z,99421.59
2022-09-16T11:22:32.557Z,99448.44
2022-09-16T11:24:58.704Z,99492.84
2022-09-16T11:27:30.872Z,99608.69
2022-09-16T11:30:02.042Z,99743.59
2022-09-16T11:33:06.955Z,99844.59
2022-09-16T11:35:36.706Z,99907.28
2022-09-16T11:38:08.534Z,99875.19
2022-09-16T11:40:43.019Z,99793.91
2022-09-16T11:43:18.286Z,99731.44
2022-09-16T11:45:44.438Z,99570.75
2022-09-16T11:48:25.228Z,99297.53
2022-09-16T11:51:03.864Z,99143.09
2022-09-16T11:53:42.377Z,99055.28
2022-09-16T11:56:14.121Z,98972.97
2022-09-16T11:58:44.818Z,98925.22
2022-09-16T12:01:19.857Z,98913.69
2022-09-16T12:03:54.582Z,98983.50
2022-09-16T12:06:22.616Z,98936.22
2022-09-16T12:09:03.080Z,98933.56
2022-09-16T12:11:32.055Z,98964.63
2022-09-16T12:14:15.111Z,98964.31
2022-09-16T12:16:44.385Z,98924.41
2022-09-16T12:19:12.094Z,98939.84
2022-09-16T12:21:44.602Z,98995.13
2022-09-16T12:24:16.533Z,99003.81
2022-09-16T12:27:12.181Z,98930.66
2022-09-16T12:29:41.851Z,98868.63
2022-09-16T12:32:13.159Z,98864.56
2022-09-16T12:34:41.723Z,98892.38
2022-09-16T12:37:29.808Z,98985.84
2022-09-16T12:39:56.031Z,99045.59
2022-09-16T12:42:46.035Z,99144.59
2022-09-16T12:45:15.897Z,99130.47
2022-09-16T12:47:44.885Z,99022.22
2022-09-16T12:50:29.395Z,98904.81
2022-09-16T12:53:14.127Z,98850.69
2022-09-16T12:55:43.253Z,98993.59
2022-09-16T12:58:27.824Z,99026.50
2022-09-16T13:01:06.010Z,99083.19
2022-09-16T13:03:32.260Z,99032.56
2022-09-16T13:05:59.328Z,99082.25
2022-09-16T13:08:26.357Z,99145.84
2022-09-16T13:11:12.124Z,99131.16
2022-09-16T13:13:46.200Z,99049.59
2022-09-16T13:16:12.424Z,99090.00
2022-09-16T13:18:38.627Z,99106.19
2022-09-16T13:21:13.148Z,99196.66
2022-09-16T13:23:43.430Z,99146.03
2022-09-16T13:26:09.649Z,98977.09
2022-09-16T13:28:39.585Z,98912.25
2022-09-16T13:31:12.032Z,98977.47
2022-09-16T13:33:38.714Z,99046.22
2022-09-16T13:36:20.146Z,99041.19
2022-09-16T13:38:47.378Z,99062.19
2022-09-16T13:41:13.808Z,99072.00
2022-09-16T13:43:43.074Z,99093.41
2022-09-16T13:46:10.097Z,99108.53
2022-09-16T13:48:38.240Z,99158.63
2022-09-16T13:51:07.274Z,99232.00
2022-09-16T13:53:33.713Z,99183.53
2022-09-16T13:56:07.729Z,99223.75
2022-09-16T13:58:36.136Z,99139.44
2022-09-16T14:01:11.115Z,99120.91
2022-09-16T14:03:40.328Z,99203.72
2022-09-16T14:06:09.300Z,99261.13
2022-09-16T14:08:38.548Z,99329.53
2022-09-16T14:11:24.996Z,99321.81
2022-09-16T14:14:00.772Z,99200.88
2022-09-16T14:16:32.060Z,99129.91
2022-09-16T14:19:01.261Z,99056.53
2022-09-16T14:21:27.489Z,99045.03
2022-09-16T14:26:21.666Z,99151.00
2022-09-16T14:28:48.060Z,99248.13
2022-09-16T14:31:18.543Z,99360.78
2022-09-16T14:33:46.527Z,99367.63
2022-09-16T14:36:14.376Z,99283.53
2022-09-16T14:38:45.890Z,99178.44
2022-09-16T14:41:15.699Z,99152.03
2022-09-16T14:43:41.904Z,99122.50
2022-09-16T14:46:08.114Z,99219.66
2022-09-16T14:48:35.197Z,99307.66
2022-09-16T14:51:01.402Z,99292.16
2022-09-16T14:53:37.407Z,99305.16
2022-09-16T14:56:04.763Z,99312.91
2022-09-16T14:58:31.332Z,99349.63
2022-09-16T15:00:59.025Z,99429.19
2022-09-16T15:03:43.973Z,99423.78
2022-09-16T15:06:12.672Z,99398.84
2022-09-16T15:08:46.231Z,99369.38
2022-09-16T15:11:29.793Z,99428.84
2022-09-16T15:14:01.016Z,99472.47
2022-09-16T15:16:27.223Z,99458.94
2022-09-16T15:18:53.377Z,99470.25
2022-09-16T15:21:20.761Z,99514.72
2022-09-16T15:23:50.735Z,99535.38
2022-09-16T15:26:18.121Z,99574.66
2022-09-16T15:31:44.976Z,99547.13
2022-09-16T15:34:17.233Z,99509.59
2022-09-16T15:36:43.489Z,99450.94
2022-09-16T15:39:21.690Z,99428.72
2022-09-16T15:41:47.897Z,99321.38
2022-09-16T15:44:15.793Z,99275.97
2022-09-16T15:46:45.063Z,99268.59
2022-09-16T15:49:11.554Z,99141.66
2022-09-16T15:51:47.692Z,99156.28
2022-09-16T15:54:13.848Z,99167.22
2022-09-16T15:56:44.559Z,99228.41
2022-09-16T15:59:25.229Z,99306.19
2022-09-16T16:01:53.590Z,99393.25
2022-09-16T16:04:24.397Z,99423.53
2022-09-16T16:07:00.444Z,99438.50
2022-09-16T16:09:26.628Z,99432.25
2022-09-16T16:12:02.584Z,99433.31
2022-09-16T16:14:29.782Z,99456.97
2022-09-16T16:17:12.227Z,99487.47
2022-09-16T16:19:39.232Z,99399.06
2022-09-16T16:22:05.884Z,99392.88
2022-09-16T16:24:32.225Z,99414.25
2022-09-16T16:26:58.433Z,99433.22
2022-09-16T16:29:24.614Z,99454.59
2022-09-16T16:31:57.601Z,99449.22
2022-09-16T16:34:23.805Z,99483.69
2022-09-16T16:36:50.011Z,99595.56
2022-09-16T16:39:16.235Z,99713.44
2022-09-16T16:41:42.434Z,99760.75
2022-09-16T16:44:08.630Z,99775.25
2022-09-16T16:46:34.909Z,99794.13
2022-09-16T16:49:01.196Z,99779.50
2022-09-16T16:51:27.386Z,99765.34
2022-09-16T16:53:53.597Z,99758.53
2022-09-16T16:56:19.799Z,99717.97
2022-09-16T16:58:46.006Z,99698.56
2022-09-16T17:01:13.070Z,99677.97
2022-09-16T17:03:39.529Z,99656.09
2022-09-16T17:06:05.823Z,99639.19
2022-09-16T17:08:32.180Z,99646.69
2022-09-16T17:11:10.432Z,99626.25
2022-09-16T17:13:39.928Z,99622.88
2022-09-16T17:16:06.296Z,99634.75
2022-09-16T17:18:35.985Z,99649.97
2022-09-16T17:21:06.241Z,99651.03
2022-09-16T17:23:32.452Z,99642.72
2022-09-16T17:25:58.873Z,99638.31
2022-09-16T17:28:25.078Z,99649.25
2022-09-16T17:30:51.331Z,99641.41
2022-09-16T17:33:17.572Z,99636.72
2022-09-16T17:35:43.770Z,99633.03
2022-09-16T17:38:10.036Z,99631.72
2022-09-16T17:40:36.318Z,99614.88
2022-09-16T17:43:02.633Z,99608.09
2022-09-16T17:45:28.829Z,99605.53
2022-09-16T17:47:55.203Z,99604.19
2022-09-16T17:50:23.166Z,99593.34
2022-09-16T17:52:49.444Z,99569.13
2022-09-16T17:55:15.662Z,99560.78
2022-09-16T17:57:41.874Z,99549.88
2022-09-16T18:00:08.312Z,99557.06
2022-09-16T18:02:35.143Z,99567.94
2022-09-16T18:05:01.534Z,99573.16
2022-09-16T18:07:27.779Z,99594.00
2022-09-16T18:09:53.978Z,99605.50
2022-09-16T18:12:20.189Z,99604.44
2022-09-16T18:14:46.443Z,99596.00
2022-09-16T18:17:12.704Z,99596.13
2022-09-16T18:19:38.944Z,99570.16
2022-09-16T18:22:05.142Z,99556.72
2022-09-16T18:24:31.347Z,99534.97
2022-09-16T18:26:57.533Z,99534.50
2022-09-16T18:29:23.738Z,99542.66
2022-09-16T18:31:49.939Z,99523.41
2022-09-16T18:34:16.304Z,99507.31
2022-09-16T18:36:42.540Z,99484.53
2022-09-16T18:39:13.341Z,99479.28
2022-09-16T18:41:39.853Z,99466.09
2022-09-16T18:44:06.830Z,99467.44
2022-09-16T18:46:33.892Z,99459.31
2022-09-16T18:49:00.116Z,99470.16
2022-09-16T18:51:29.937Z,99469.28
2022-09-16T18:53:57.694Z,99456.19
2022-09-16T18:56:24.578Z,99450.75
2022-09-16T18:59:16.766Z,99440.28
2022-09-16T19:01:37.399Z,99439.50
2022-09-16T19:04:04.270Z,99430.72
2022-09-16T19:06:31.304Z,99441.53
2022-09-16T19:08:59.368Z,99449.38
2022-09-16T19:11:25.556Z,99453.06
2022-09-16T19:13:51.758Z,99455.94
2022-09-16T19:16:17.953Z,99452.53
2022-09-16T19:18:44.166Z,99437.06
2022-09-16T19:21:16.696Z,99434.28
2022-09-16T19:23:43.336Z,99434.56
2022-09-16T19:26:09.525Z,99429.09
2022-09-16T19:28:35.732Z,99426.78
2022-09-16T19:31:05.394Z,99426.28
2022-09-16T19:33:31.599Z,99427.34
2022-09-16T19:35:57.794Z,99418.78
2022-09-16T19:38:24.389Z,99425.63
2022-09-16T19:40:50.585Z,99424.09
2022-09-16T19:43:16.780Z,99425.44
2022-09-16T19:45:43.004Z,99441.38
2022-09-16T19:48:09.206Z,99435.94
2022-09-16T19:50:35.406Z,99436.50
2022-09-16T19:53:01.610Z,99434.94
2022-09-16T19:55:27.794Z,99440.75
2022-09-16T19:57:53.981Z,99446.53
2022-09-16T20:00:20.212Z,99454.13
2022-09-16T20:02:46.439Z,99470.97
2022-09-16T20:05:12.743Z,99503.19
2022-09-16T20:07:38.932Z,99507.59
2022-09-16T20:10:05.248Z,99503.44
2022-09-16T20:12:31.442Z,99517.88
2022-09-16T20:14:57.668Z,99527.28
2022-09-16T20:17:23.870Z,99533.34
2022-09-16T20:19:50.169Z,99560.84
2022-09-16T20:22:16.367Z,99562.69
2022-09-16T20:24:42.565Z,99572.38
2022-09-16T20:27:08.780Z,99576.03
2022-09-16T20:29:34.991Z,99580.50
2022-09-16T20:32:01.284Z,99572.94
2022-09-16T20:34:27.516Z,99565.66
2022-09-16T20:36:53.733Z,99563.53
2022-09-16T20:39:19.969Z,99566.94
2022-09-16T20:41:46.160Z,99570.31
2022-09-16T20:44:12.957Z,99585.50
2022-09-16T20:46:39.148Z,99591.25
2022-09-16T20:49:05.602Z,99600.19
2022-09-16T20:51:32.328Z,99595.75
2022-09-16T20:54:07.708Z,99608.78
2022-09-16T20:56:38.004Z,99600.66
2022-09-16T20:59:04.732Z,99589.75
2022-09-16T21:01:31.428Z,99575.28
2022-09-16T21:03:58.339Z,99574.19
2022-09-16T21:06:24.850Z,99567.25
2022-09-16T21:08:54.499Z,99567.56
2022-09-16T21:11:20.728Z,99571.47
2022-09-16T21:13:49.118Z,99577.69
2022-09-16T21:16:15.368Z,99559.91
2022-09-16T21:18:41.823Z,99569.56
2022-09-16T21:21:08.749Z,99548.63
2022-09-16T21:23:34.949Z,99548.34
2022-09-16T21:26:01.953Z,99563.84
2022-09-16T21:28:28.152Z,99581.28
2022-09-16T21:30:58.121Z,99571.38
2022-09-16T21:33:24.364Z,99584.75
2022-09-16T21:35:51.131Z,99607.97
2022-09-16T21:38:17.329Z,99634.06
2022-09-16T21:40:43.554Z,99643.97
2022-09-16T21:43:09.752Z,99652.59
2022-09-16T21:45:35.958Z,99647.38
2022-09-16T21:48:02.144Z,99640.00
2022-09-16T21:50:28.343Z,99647.31
2022-09-16T21:52:54.538Z,99634.31
2022-09-16T21:55:20.762Z,99621.16
2022-09-16T21:57:46.954Z,99628.75
2022-09-16T22:00:13.361Z,99632.69
2022-09-16T22:02:39.634Z,99633.72
2022-09-16T22:05:06.004Z,99632.97
2022-09-16T22:07:32.195Z,99630.34
2022-09-16T22:09:58.394Z,99624.06
2022-09-16T22:12:24.593Z,99618.03
2022-09-16T22:14:50.796Z,99604.97
2022-09-16T22:17:16.998Z,99602.38
2022-09-16T22:19:43.202Z,99594.78
2022-09-16T22:22:09.411Z,99594.53
2022-09-16T22:24:35.626Z,99581.97
2022-09-16T22:27:01.812Z,99575.91
2022-09-16T22:29:28.004Z,99583.25
2022-09-16T22:31:54.237Z,99583.47
2022-09-16T22:34:20.473Z,99578.78
2022-09-16T22:36:46.672Z,99584.25
2022-09-16T22:39:13.880Z,99583.44
2022-09-16T22:41:40.069Z,99592.34
2022-09-16T22:44:06.264Z,99585.00
2022-09-16T22:46:38.984Z,99587.41
2022-09-16T22:49:05.221Z,99579.28
2022-09-16T22:51:31.429Z,99590.03
2022-09-16T22:53:57.625Z,99586.88
2022-09-16T22:56:27.790Z,99574.34
2022-09-16T22:58:54.441Z,99581.13
2022-09-16T23:01:30.990Z,99577.19
2022-09-16T23:03:58.198Z,99575.34
2022-09-16T23:06:24.776Z,99575.09
2022-09-16T23:08:51.041Z,99567.78
2022-09-16T23:11:18.108Z,99570.47
2022-09-16T23:13:44.309Z,99578.03
2022-09-16T23:16:14.915Z,99576.16
2022-09-16T23:18:41.225Z,99572.03
2022-09-16T23:21:08.400Z,99581.63
2022-09-16T23:23:35.172Z,99577.00
2022-09-16T23:26:01.957Z,99576.94
2022-09-16T23:28:28.144Z,99579.03
2022-09-16T23:30:54.380Z,99577.38
2022-09-16T23:33:20.621Z,99578.38
2022-09-16T23:35:47.404Z,99576.31
2022-09-16T23:38:13.780Z,99577.31
2022-09-16T23:40:39.996Z,99575.91
2022-09-16T23:43:06.197Z,99572.78
2022-09-16T23:45:33.779Z,99576.69
2022-09-16T23:47:59.973Z,99568.53
2022-09-16T23:50:26.226Z,99571.13
2022-09-16T23:52:52.462Z,99564.84
2022-09-16T23:55:18.665Z,99575.75
2022-09-16T23:57:44.858Z,99570.72
